sensor_id;sensor_type;location;lat;lon;timestamp;P1;durP1;ratioP1;P2;durP2;ratioP2
79454;SDS011;68900;52.134;5.420;2024-03-06T00:00:13;27.33;;;15.68;;
79454;SDS011;68900;52.134;5.420;2024-03-06T00:02:40;26.63;;;14.80;;
79454;SDS011;68900;52.134;5.420;2024-03-06T00:05:09;26.60;;;15.52;;
79454;SDS011;68900;52.134;5.420;2024-03-06T00:07:36;24.45;;;15.05;;
79454;SDS011;68900;52.134;5.420;2024-03-06T00:10:03;25.85;;;14.73;;
79454;SDS011;68900;52.134;5.420;2024-03-06T00:12:33;26.48;;;14.50;;
79454;SDS011;68900;52.134;5.420;2024-03-06T00:15:02;26.42;;;15.27;;
79454;SDS011;68900;52.134;5.420;2024-03-06T00:17:29;21.83;;;14.23;;
79454;SDS011;68900;52.134;5.420;2024-03-06T00:19:56;25.73;;;14.27;;
79454;SDS011;68900;52.134;5.420;2024-03-06T00:22:25;23.45;;;14.52;;
79454;SDS011;68900;52.134;5.420;2024-03-06T00:24:52;26.00;;;14.93;;
79454;SDS011;68900;52.134;5.420;2024-03-06T00:27:19;23.75;;;14.88;;
79454;SDS011;68900;52.134;5.420;2024-03-06T00:29:48;25.25;;;14.82;;
79454;SDS011;68900;52.134;5.420;2024-03-06T00:32:15;22.95;;;13.75;;
79454;SDS011;68900;52.134;5.420;2024-03-06T00:34:49;27.50;;;14.65;;
79454;SDS011;68900;52.134;5.420;2024-03-06T00:37:16;26.88;;;15.13;;
79454;SDS011;68900;52.134;5.420;2024-03-06T00:39:42;25.25;;;15.38;;
79454;SDS011;68900;52.134;5.420;2024-03-06T00:42:13;22.88;;;14.70;;
79454;SDS011;68900;52.134;5.420;2024-03-06T00:44:40;25.27;;;14.55;;
79454;SDS011;68900;52.134;5.420;2024-03-06T00:47:07;23.38;;;13.98;;
79454;SDS011;68900;52.134;5.420;2024-03-06T00:49:34;24.35;;;14.88;;
79454;SDS011;68900;52.134;5.420;2024-03-06T00:52:05;27.20;;;14.05;;
79454;SDS011;68900;52.134;5.420;2024-03-06T00:54:35;23.42;;;14.52;;
79454;SDS011;68900;52.134;5.420;2024-03-06T00:57:07;22.25;;;14.40;;
79454;SDS011;68900;52.134;5.420;2024-03-06T00:59:34;22.55;;;13.77;;
79454;SDS011;68900;52.134;5.420;2024-03-06T01:02:00;21.77;;;13.68;;
79454;SDS011;68900;52.134;5.420;2024-03-06T01:04:27;24.67;;;15.10;;
79454;SDS011;68900;52.134;5.420;2024-03-06T01:06:54;25.55;;;14.73;;
79454;SDS011;68900;52.134;5.420;2024-03-06T01:09:22;22.70;;;14.38;;
79454;SDS011;68900;52.134;5.420;2024-03-06T01:11:49;24.15;;;14.32;;
79454;SDS011;68900;52.134;5.420;2024-03-06T01:14:16;22.93;;;14.27;;
79454;SDS011;68900;52.134;5.420;2024-03-06T01:16:42;24.17;;;15.13;;
79454;SDS011;68900;52.134;5.420;2024-03-06T01:19:09;24.67;;;14.65;;
79454;SDS011;68900;52.134;5.420;2024-03-06T01:21:36;23.08;;;14.68;;
79454;SDS011;68900;52.134;5.420;2024-03-06T01:24:02;25.75;;;14.82;;
79454;SDS011;68900;52.134;5.420;2024-03-06T01:26:29;25.10;;;14.73;;
79454;SDS011;68900;52.134;5.420;2024-03-06T01:28:55;20.50;;;13.60;;
79454;SDS011;68900;52.134;5.420;2024-03-06T01:31:22;23.50;;;15.18;;
79454;SDS011;68900;52.134;5.420;2024-03-06T01:33:48;24.17;;;14.70;;
79454;SDS011;68900;52.134;5.420;2024-03-06T01:36:15;27.50;;;15.90;;
79454;SDS011;68900;52.134;5.420;2024-03-06T01:38:41;24.67;;;14.40;;
79454;SDS011;68900;52.134;5.420;2024-03-06T01:41:10;27.80;;;15.98;;
79454;SDS011;68900;52.134;5.420;2024-03-06T01:43:37;24.77;;;14.77;;
79454;SDS011;68900;52.134;5.420;2024-03-06T01:46:07;25.42;;;14.57;;
79454;SDS011;68900;52.134;5.420;2024-03-06T01:48:34;27.42;;;14.88;;
79454;SDS011;68900;52.134;5.420;2024-03-06T01:51:02;28.00;;;15.43;;
79454;SDS011;68900;52.134;5.420;2024-03-06T01:53:32;29.67;;;16.35;;
79454;SDS011;68900;52.134;5.420;2024-03-06T01:55:59;26.08;;;14.88;;
79454;SDS011;68900;52.134;5.420;2024-03-06T01:58:26;28.02;;;16.20;;
79454;SDS011;68900;52.134;5.420;2024-03-06T02:00:54;29.52;;;16.90;;
79454;SDS011;68900;52.134;5.420;2024-03-06T02:03:21;27.60;;;15.30;;
79454;SDS011;68900;52.134;5.420;2024-03-06T02:05:48;30.48;;;16.13;;
79454;SDS011;68900;52.134;5.420;2024-03-06T02:08:16;24.38;;;15.02;;
79454;SDS011;68900;52.134;5.420;2024-03-06T02:10:44;29.30;;;16.08;;
79454;SDS011;68900;52.134;5.420;2024-03-06T02:13:13;27.67;;;15.75;;
79454;SDS011;68900;52.134;5.420;2024-03-06T02:15:40;26.65;;;15.18;;
79454;SDS011;68900;52.134;5.420;2024-03-06T02:18:06;26.42;;;14.55;;
79454;SDS011;68900;52.134;5.420;2024-03-06T02:20:35;25.75;;;15.48;;
79454;SDS011;68900;52.134;5.420;2024-03-06T02:23:03;25.60;;;14.80;;
79454;SDS011;68900;52.134;5.420;2024-03-06T02:25:30;27.83;;;14.88;;
79454;SDS011;68900;52.134;5.420;2024-03-06T02:27:57;26.02;;;14.27;;
79454;SDS011;68900;52.134;5.420;2024-03-06T02:30:23;22.55;;;13.98;;
79454;SDS011;68900;52.134;5.420;2024-03-06T02:32:50;24.05;;;14.20;;
79454;SDS011;68900;52.134;5.420;2024-03-06T02:35:16;24.13;;;14.23;;
79454;SDS011;68900;52.134;5.420;2024-03-06T02:37:44;28.65;;;14.23;;
79454;SDS011;68900;52.134;5.420;2024-03-06T02:40:11;25.70;;;14.75;;
79454;SDS011;68900;52.134;5.420;2024-03-06T02:42:38;23.23;;;14.15;;
79454;SDS011;68900;52.134;5.420;2024-03-06T02:45:08;26.95;;;14.27;;
79454;SDS011;68900;52.134;5.420;2024-03-06T02:47:35;26.20;;;13.55;;
79454;SDS011;68900;52.134;5.420;2024-03-06T02:50:01;25.05;;;14.13;;
79454;SDS011;68900;52.134;5.420;2024-03-06T02:52:28;22.40;;;13.90;;
79454;SDS011;68900;52.134;5.420;2024-03-06T02:54:55;26.17;;;14.10;;
79454;SDS011;68900;52.134;5.420;2024-03-06T02:57:22;26.38;;;14.23;;
79454;SDS011;68900;52.134;5.420;2024-03-06T02:59:49;21.65;;;12.82;;
79454;SDS011;68900;52.134;5.420;2024-03-06T03:02:16;15.55;;;10.07;;
79454;SDS011;68900;52.134;5.420;2024-03-06T03:04:42;14.50;;;9.63;;
79454;SDS011;68900;52.134;5.420;2024-03-06T03:07:10;15.85;;;9.40;;
79454;SDS011;68900;52.134;5.420;2024-03-06T03:09:36;12.70;;;8.48;;
79454;SDS011;68900;52.134;5.420;2024-03-06T03:12:05;13.77;;;9.23;;
79454;SDS011;68900;52.134;5.420;2024-03-06T03:14:32;15.32;;;9.85;;
79454;SDS011;68900;52.134;5.420;2024-03-06T03:17:00;16.55;;;10.60;;
79454;SDS011;68900;52.134;5.420;2024-03-06T03:19:27;17.08;;;10.60;;
79454;SDS011;68900;52.134;5.420;2024-03-06T03:21:53;18.45;;;11.18;;
79454;SDS011;68900;52.134;5.420;2024-03-06T03:24:20;19.20;;;11.35;;
79454;SDS011;68900;52.134;5.420;2024-03-06T03:26:47;20.27;;;11.35;;
79454;SDS011;68900;52.134;5.420;2024-03-06T03:29:14;15.75;;;10.23;;
79454;SDS011;68900;52.134;5.420;2024-03-06T03:31:40;18.42;;;10.85;;
79454;SDS011;68900;52.134;5.420;2024-03-06T03:34:08;16.88;;;10.63;;
79454;SDS011;68900;52.134;5.420;2024-03-06T03:36:39;16.65;;;10.23;;
79454;SDS011;68900;52.134;5.420;2024-03-06T03:39:10;16.83;;;10.60;;
79454;SDS011;68900;52.134;5.420;2024-03-06T03:41:46;17.02;;;10.07;;
79454;SDS011;68900;52.134;5.420;2024-03-06T03:44:14;14.30;;;9.82;;
79454;SDS011;68900;52.134;5.420;2024-03-06T03:46:41;13.80;;;9.00;;
79454;SDS011;68900;52.134;5.420;2024-03-06T03:49:11;13.70;;;8.85;;
79454;SDS011;68900;52.134;5.420;2024-03-06T03:51:38;13.95;;;9.23;;
79454;SDS011;68900;52.134;5.420;2024-03-06T03:54:05;12.80;;;7.85;;
79454;SDS011;68900;52.134;5.420;2024-03-06T03:56:32;14.32;;;8.13;;
79454;SDS011;68900;52.134;5.420;2024-03-06T03:59:06;13.60;;;8.25;;
79454;SDS011;68900;52.134;5.420;2024-03-06T04:01:33;13.65;;;8.65;;
79454;SDS011;68900;52.134;5.420;2024-03-06T04:04:00;12.93;;;8.45;;
79454;SDS011;68900;52.134;5.420;2024-03-06T04:06:29;14.80;;;8.73;;
79454;SDS011;68900;52.134;5.420;2024-03-06T04:08:55;16.00;;;9.50;;
79454;SDS011;68900;52.134;5.420;2024-03-06T04:11:22;13.73;;;8.75;;
79454;SDS011;68900;52.134;5.420;2024-03-06T04:13:48;14.77;;;9.00;;
79454;SDS011;68900;52.134;5.420;2024-03-06T04:16:15;15.23;;;9.18;;
79454;SDS011;68900;52.134;5.420;2024-03-06T04:18:44;15.38;;;9.50;;
79454;SDS011;68900;52.134;5.420;2024-03-06T04:21:11;14.20;;;9.18;;
79454;SDS011;68900;52.134;5.420;2024-03-06T04:23:40;17.65;;;9.85;;
79454;SDS011;68900;52.134;5.420;2024-03-06T04:26:07;16.75;;;9.02;;
79454;SDS011;68900;52.134;5.420;2024-03-06T04:28:40;16.23;;;9.02;;
79454;SDS011;68900;52.134;5.420;2024-03-06T04:31:10;15.13;;;8.85;;
79454;SDS011;68900;52.134;5.420;2024-03-06T04:33:36;12.75;;;8.38;;
79454;SDS011;68900;52.134;5.420;2024-03-06T04:36:03;14.60;;;9.00;;
79454;SDS011;68900;52.134;5.420;2024-03-06T04:38:33;17.05;;;9.02;;
79454;SDS011;68900;52.134;5.420;2024-03-06T04:43:31;15.27;;;8.25;;
79454;SDS011;68900;52.134;5.420;2024-03-06T04:45:57;17.95;;;9.82;;
79454;SDS011;68900;52.134;5.420;2024-03-06T04:48:24;16.30;;;9.02;;
79454;SDS011;68900;52.134;5.420;2024-03-06T04:50:50;19.92;;;9.20;;
79454;SDS011;68900;52.134;5.420;2024-03-06T04:53:17;17.83;;;9.60;;
79454;SDS011;68900;52.134;5.420;2024-03-06T04:55:44;17.02;;;8.52;;
79454;SDS011;68900;52.134;5.420;2024-03-06T04:58:11;15.93;;;8.93;;
79454;SDS011;68900;52.134;5.420;2024-03-06T05:00:38;15.57;;;7.90;;
79454;SDS011;68900;52.134;5.420;2024-03-06T05:03:04;14.55;;;8.45;;
79454;SDS011;68900;52.134;5.420;2024-03-06T05:05:48;16.40;;;8.52;;
79454;SDS011;68900;52.134;5.420;2024-03-06T05:08:32;17.02;;;8.98;;
79454;SDS011;68900;52.134;5.420;2024-03-06T05:11:17;16.77;;;8.38;;
79454;SDS011;68900;52.134;5.420;2024-03-06T05:14:01;17.15;;;8.40;;
79454;SDS011;68900;52.134;5.420;2024-03-06T05:16:46;14.05;;;9.02;;
79454;SDS011;68900;52.134;5.420;2024-03-06T05:19:30;17.08;;;7.93;;
79454;SDS011;68900;52.134;5.420;2024-03-06T05:22:17;13.48;;;8.80;;
79454;SDS011;68900;52.134;5.420;2024-03-06T05:25:01;12.57;;;8.52;;
79454;SDS011;68900;52.134;5.420;2024-03-06T05:27:45;12.15;;;8.10;;
79454;SDS011;68900;52.134;5.420;2024-03-06T05:30:28;12.57;;;8.57;;
79454;SDS011;68900;52.134;5.420;2024-03-06T05:33:13;14.65;;;8.55;;
79454;SDS011;68900;52.134;5.420;2024-03-06T05:35:57;20.13;;;8.90;;
79454;SDS011;68900;52.134;5.420;2024-03-06T05:38:41;12.43;;;8.48;;
79454;SDS011;68900;52.134;5.420;2024-03-06T05:41:25;21.15;;;8.50;;
79454;SDS011;68900;52.134;5.420;2024-03-06T05:44:09;13.43;;;8.00;;
79454;SDS011;68900;52.134;5.420;2024-03-06T05:46:53;16.40;;;8.75;;
79454;SDS011;68900;52.134;5.420;2024-03-06T05:49:40;13.07;;;7.72;;
79454;SDS011;68900;52.134;5.420;2024-03-06T05:52:28;15.27;;;8.30;;
79454;SDS011;68900;52.134;5.420;2024-03-06T05:55:11;14.80;;;8.35;;
79454;SDS011;68900;52.134;5.420;2024-03-06T05:57:59;15.90;;;8.65;;
79454;SDS011;68900;52.134;5.420;2024-03-06T06:00:37;13.90;;;8.23;;
79454;SDS011;68900;52.134;5.420;2024-03-06T06:03:04;14.63;;;8.30;;
79454;SDS011;68900;52.134;5.420;2024-03-06T06:05:31;13.25;;;8.90;;
79454;SDS011;68900;52.134;5.420;2024-03-06T06:07:57;16.92;;;8.40;;
79454;SDS011;68900;52.134;5.420;2024-03-06T06:10:24;17.83;;;8.45;;
79454;SDS011;68900;52.134;5.420;2024-03-06T06:12:50;14.73;;;9.15;;
79454;SDS011;68900;52.134;5.420;2024-03-06T06:15:17;14.20;;;8.77;;
79454;SDS011;68900;52.134;5.420;2024-03-06T06:17:43;22.30;;;8.50;;
79454;SDS011;68900;52.134;5.420;2024-03-06T06:20:12;14.02;;;8.25;;
79454;SDS011;68900;52.134;5.420;2024-03-06T06:22:43;14.88;;;8.52;;
79454;SDS011;68900;52.134;5.420;2024-03-06T06:25:10;13.57;;;8.38;;
79454;SDS011;68900;52.134;5.420;2024-03-06T06:27:41;15.50;;;9.40;;
79454;SDS011;68900;52.134;5.420;2024-03-06T06:30:07;17.23;;;9.38;;
79454;SDS011;68900;52.134;5.420;2024-03-06T06:35:45;15.07;;;8.70;;
79454;SDS011;68900;52.134;5.420;2024-03-06T06:38:12;17.45;;;9.93;;
79454;SDS011;68900;52.134;5.420;2024-03-06T06:40:39;15.57;;;9.25;;
79454;SDS011;68900;52.134;5.420;2024-03-06T06:43:07;16.77;;;9.52;;
79454;SDS011;68900;52.134;5.420;2024-03-06T06:45:33;22.35;;;9.77;;
79454;SDS011;68900;52.134;5.420;2024-03-06T06:48:00;25.45;;;10.60;;
79454;SDS011;68900;52.134;5.420;2024-03-06T06:50:27;27.17;;;10.98;;
79454;SDS011;68900;52.134;5.420;2024-03-06T06:52:53;18.23;;;10.63;;
79454;SDS011;68900;52.134;5.420;2024-03-06T06:55:20;37.85;;;12.38;;
79454;SDS011;68900;52.134;5.420;2024-03-06T06:57:49;21.88;;;11.32;;
79454;SDS011;68900;52.134;5.420;2024-03-06T07:00:17;19.38;;;11.23;;
79454;SDS011;68900;52.134;5.420;2024-03-06T07:02:47;22.65;;;11.20;;
79454;SDS011;68900;52.134;5.420;2024-03-06T07:05:14;23.17;;;11.55;;
79454;SDS011;68900;52.134;5.420;2024-03-06T07:07:41;16.10;;;10.10;;
79454;SDS011;68900;52.134;5.420;2024-03-06T07:10:08;29.55;;;11.90;;
79454;SDS011;68900;52.134;5.420;2024-03-06T07:12:35;57.33;;;12.60;;
79454;SDS011;68900;52.134;5.420;2024-03-06T07:15:08;55.67;;;13.02;;
79454;SDS011;68900;52.134;5.420;2024-03-06T07:17:35;32.33;;;11.90;;
79454;SDS011;68900;52.134;5.420;2024-03-06T07:20:02;50.35;;;12.45;;
79454;SDS011;68900;52.134;5.420;2024-03-06T07:22:46;45.05;;;13.57;;
79454;SDS011;68900;52.134;5.420;2024-03-06T07:25:13;33.58;;;11.98;;
79454;SDS011;68900;52.134;5.420;2024-03-06T07:27:39;22.80;;;12.57;;
79454;SDS011;68900;52.134;5.420;2024-03-06T07:30:06;54.25;;;13.50;;
79454;SDS011;68900;52.134;5.420;2024-03-06T07:32:34;60.72;;;13.43;;
79454;SDS011;68900;52.134;5.420;2024-03-06T07:35:01;20.80;;;13.20;;
79454;SDS011;68900;52.134;5.420;2024-03-06T07:37:27;39.90;;;13.95;;
79454;SDS011;68900;52.134;5.420;2024-03-06T07:39:54;26.58;;;12.95;;
79454;SDS011;68900;52.134;5.420;2024-03-06T07:42:20;60.25;;;13.75;;
79454;SDS011;68900;52.134;5.420;2024-03-06T07:44:47;40.50;;;13.45;;
79454;SDS011;68900;52.134;5.420;2024-03-06T07:47:14;35.95;;;14.00;;
79454;SDS011;68900;52.134;5.420;2024-03-06T07:49:41;24.95;;;12.98;;
79454;SDS011;68900;52.134;5.420;2024-03-06T07:52:07;37.25;;;13.65;;
79454;SDS011;68900;52.134;5.420;2024-03-06T07:54:34;34.25;;;13.93;;
79454;SDS011;68900;52.134;5.420;2024-03-06T07:57:00;31.27;;;14.68;;
79454;SDS011;68900;52.134;5.420;2024-03-06T07:59:33;26.55;;;13.70;;
79454;SDS011;68900;52.134;5.420;2024-03-06T08:02:26;29.50;;;13.75;;
79454;SDS011;68900;52.134;5.420;2024-03-06T08:04:54;29.67;;;13.50;;
79454;SDS011;68900;52.134;5.420;2024-03-06T08:07:20;30.45;;;15.38;;
79454;SDS011;68900;52.134;5.420;2024-03-06T08:09:47;41.35;;;14.20;;
79454;SDS011;68900;52.134;5.420;2024-03-06T08:12:14;30.20;;;15.25;;
79454;SDS011;68900;52.134;5.420;2024-03-06T08:14:40;25.48;;;13.82;;
79454;SDS011;68900;52.134;5.420;2024-03-06T08:17:07;28.23;;;15.27;;
79454;SDS011;68900;52.134;5.420;2024-03-06T08:19:33;32.53;;;14.88;;
79454;SDS011;68900;52.134;5.420;2024-03-06T08:22:00;30.58;;;15.32;;
79454;SDS011;68900;52.134;5.420;2024-03-06T08:24:31;31.75;;;15.43;;
79454;SDS011;68900;52.134;5.420;2024-03-06T08:26:58;34.83;;;16.77;;
79454;SDS011;68900;52.134;5.420;2024-03-06T08:29:27;47.13;;;15.88;;
79454;SDS011;68900;52.134;5.420;2024-03-06T08:31:53;35.72;;;14.98;;
79454;SDS011;68900;52.134;5.420;2024-03-06T08:34:24;45.92;;;15.30;;
79454;SDS011;68900;52.134;5.420;2024-03-06T08:36:50;47.13;;;17.30;;
79454;SDS011;68900;52.134;5.420;2024-03-06T08:39:18;33.53;;;16.75;;
79454;SDS011;68900;52.134;5.420;2024-03-06T08:41:45;34.30;;;16.90;;
79454;SDS011;68900;52.134;5.420;2024-03-06T08:44:13;34.70;;;16.70;;
79454;SDS011;68900;52.134;5.420;2024-03-06T08:46:40;34.53;;;17.27;;
79454;SDS011;68900;52.134;5.420;2024-03-06T08:49:07;38.75;;;17.00;;
79454;SDS011;68900;52.134;5.420;2024-03-06T08:51:36;38.75;;;16.65;;
79454;SDS011;68900;52.134;5.420;2024-03-06T08:54:03;38.90;;;16.70;;
79454;SDS011;68900;52.134;5.420;2024-03-06T08:56:29;46.20;;;17.60;;
79454;SDS011;68900;52.134;5.420;2024-03-06T08:58:56;42.90;;;17.92;;
79454;SDS011;68900;52.134;5.420;2024-03-06T09:01:22;41.75;;;18.48;;
79454;SDS011;68900;52.134;5.420;2024-03-06T09:03:50;50.60;;;18.70;;
79454;SDS011;68900;52.134;5.420;2024-03-06T09:06:16;42.58;;;18.10;;
79454;SDS011;68900;52.134;5.420;2024-03-06T09:19:59;36.58;;;19.08;;
79454;SDS011;68900;52.134;5.420;2024-03-06T09:22:36;42.20;;;17.80;;
79454;SDS011;68900;52.134;5.420;2024-03-06T09:25:36;38.00;;;19.65;;
79454;SDS011;68900;52.134;5.420;2024-03-06T09:28:02;41.13;;;18.92;;
79454;SDS011;68900;52.134;5.420;2024-03-06T09:30:31;40.20;;;19.40;;
79454;SDS011;68900;52.134;5.420;2024-03-06T09:32:57;36.63;;;19.10;;
79454;SDS011;68900;52.134;5.420;2024-03-06T09:35:24;39.05;;;20.77;;
79454;SDS011;68900;52.134;5.420;2024-03-06T09:37:51;37.38;;;19.15;;
79454;SDS011;68900;52.134;5.420;2024-03-06T09:40:21;38.97;;;18.70;;
79454;SDS011;68900;52.134;5.420;2024-03-06T09:42:49;39.70;;;19.77;;
79454;SDS011;68900;52.134;5.420;2024-03-06T09:45:17;36.53;;;19.10;;
79454;SDS011;68900;52.134;5.420;2024-03-06T09:47:46;34.47;;;19.13;;
79454;SDS011;68900;52.134;5.420;2024-03-06T10:06:17;31.45;;;17.40;;
79454;SDS011;68900;52.134;5.420;2024-03-06T10:11:40;31.30;;;16.80;;
79454;SDS011;68900;52.134;5.420;2024-03-06T10:14:12;33.67;;;18.98;;
79454;SDS011;68900;52.134;5.420;2024-03-06T10:19:28;35.45;;;18.77;;
79454;SDS011;68900;52.134;5.420;2024-03-06T10:21:56;34.17;;;18.23;;
79454;SDS011;68900;52.134;5.420;2024-03-06T10:24:27;35.25;;;18.60;;
79454;SDS011;68900;52.134;5.420;2024-03-06T10:26:54;31.52;;;18.58;;
79454;SDS011;68900;52.134;5.420;2024-03-06T10:29:28;29.13;;;16.52;;
79454;SDS011;68900;52.134;5.420;2024-03-06T10:31:56;31.75;;;17.38;;
79454;SDS011;68900;52.134;5.420;2024-03-06T10:34:24;31.30;;;17.95;;
79454;SDS011;68900;52.134;5.420;2024-03-06T10:36:53;31.25;;;16.58;;
79454;SDS011;68900;52.134;5.420;2024-03-06T10:39:21;31.85;;;17.50;;
79454;SDS011;68900;52.134;5.420;2024-03-06T10:41:52;31.73;;;17.52;;
79454;SDS011;68900;52.134;5.420;2024-03-06T10:44:25;30.45;;;17.42;;
79454;SDS011;68900;52.134;5.420;2024-03-06T10:59:26;30.17;;;16.42;;
79454;SDS011;68900;52.134;5.420;2024-03-06T11:08:35;26.98;;;14.80;;
79454;SDS011;68900;52.134;5.420;2024-03-06T11:36:26;26.23;;;15.00;;
79454;SDS011;68900;52.134;5.420;2024-03-06T11:46:48;26.98;;;14.43;;
79454;SDS011;68900;52.134;5.420;2024-03-06T11:51:56;27.13;;;15.57;;
79454;SDS011;68900;52.134;5.420;2024-03-06T11:58:23;24.67;;;13.95;;
79454;SDS011;68900;52.134;5.420;2024-03-06T12:01:02;27.50;;;14.68;;
79454;SDS011;68900;52.134;5.420;2024-03-06T12:03:32;28.63;;;14.25;;
79454;SDS011;68900;52.134;5.420;2024-03-06T12:06:01;26.25;;;14.80;;
79454;SDS011;68900;52.134;5.420;2024-03-06T12:08:28;27.10;;;14.13;;
79454;SDS011;68900;52.134;5.420;2024-03-06T12:10:55;24.67;;;15.10;;
79454;SDS011;68900;52.134;5.420;2024-03-06T12:13:25;24.83;;;13.18;;
79454;SDS011;68900;52.134;5.420;2024-03-06T12:15:55;25.77;;;15.48;;
79454;SDS011;68900;52.134;5.420;2024-03-06T12:18:21;25.13;;;14.48;;
79454;SDS011;68900;52.134;5.420;2024-03-06T12:20:49;24.50;;;13.85;;
79454;SDS011;68900;52.134;5.420;2024-03-06T12:23:20;22.42;;;12.73;;
79454;SDS011;68900;52.134;5.420;2024-03-06T12:25:48;21.58;;;12.27;;
79454;SDS011;68900;52.134;5.420;2024-03-06T12:28:33;19.63;;;11.63;;
79454;SDS011;68900;52.134;5.420;2024-03-06T12:31:03;19.52;;;11.60;;
79454;SDS011;68900;52.134;5.420;2024-03-06T12:33:31;21.58;;;11.77;;
79454;SDS011;68900;52.134;5.420;2024-03-06T12:36:31;17.42;;;10.60;;
79454;SDS011;68900;52.134;5.420;2024-03-06T12:39:14;16.92;;;9.65;;
79454;SDS011;68900;52.134;5.420;2024-03-06T12:42:01;18.10;;;10.07;;
79454;SDS011;68900;52.134;5.420;2024-03-06T12:44:54;13.68;;;7.78;;
79454;SDS011;68900;52.134;5.420;2024-03-06T12:47:20;17.30;;;8.65;;
79454;SDS011;68900;52.134;5.420;2024-03-06T12:49:47;17.52;;;8.88;;
79454;SDS011;68900;52.134;5.420;2024-03-06T12:52:14;12.95;;;7.45;;
79454;SDS011;68900;52.134;5.420;2024-03-06T12:54:40;14.25;;;7.10;;
79454;SDS011;68900;52.134;5.420;2024-03-06T12:57:10;12.40;;;6.07;;
79454;SDS011;68900;52.134;5.420;2024-03-06T12:59:51;10.73;;;5.00;;
79454;SDS011;68900;52.134;5.420;2024-03-06T13:03:04;13.40;;;5.82;;
79454;SDS011;68900;52.134;5.420;2024-03-06T13:06:08;13.20;;;6.75;;
79454;SDS011;68900;52.134;5.420;2024-03-06T13:08:40;13.60;;;6.88;;
79454;SDS011;68900;52.134;5.420;2024-03-06T13:11:11;13.23;;;6.80;;
79454;SDS011;68900;52.134;5.420;2024-03-06T13:13:38;14.60;;;7.65;;
79454;SDS011;68900;52.134;5.420;2024-03-06T13:16:13;16.45;;;7.28;;
79454;SDS011;68900;52.134;5.420;2024-03-06T13:18:40;13.43;;;5.75;;
79454;SDS011;68900;52.134;5.420;2024-03-06T13:21:09;11.48;;;5.47;;
79454;SDS011;68900;52.134;5.420;2024-03-06T13:23:36;9.95;;;5.90;;
79454;SDS011;68900;52.134;5.420;2024-03-06T13:26:02;10.57;;;5.55;;
79454;SDS011;68900;52.134;5.420;2024-03-06T13:28:29;11.40;;;6.15;;
79454;SDS011;68900;52.134;5.420;2024-03-06T13:30:56;10.65;;;5.75;;
79454;SDS011;68900;52.134;5.420;2024-03-06T13:33:22;9.75;;;5.18;;
79454;SDS011;68900;52.134;5.420;2024-03-06T13:35:53;10.30;;;5.70;;
79454;SDS011;68900;52.134;5.420;2024-03-06T13:38:22;11.85;;;5.78;;
79454;SDS011;68900;52.134;5.420;2024-03-06T13:40:48;10.65;;;5.95;;
79454;SDS011;68900;52.134;5.420;2024-03-06T13:43:15;9.85;;;5.53;;
79454;SDS011;68900;52.134;5.420;2024-03-06T13:45:48;10.50;;;5.70;;
79454;SDS011;68900;52.134;5.420;2024-03-06T13:48:20;12.60;;;6.47;;
79454;SDS011;68900;52.134;5.420;2024-03-06T13:51:36;12.18;;;6.32;;
79454;SDS011;68900;52.134;5.420;2024-03-06T13:54:02;12.02;;;6.57;;
79454;SDS011;68900;52.134;5.420;2024-03-06T13:56:51;11.52;;;5.85;;
79454;SDS011;68900;52.134;5.420;2024-03-06T13:59:20;61.83;;;39.33;;
79454;SDS011;68900;52.134;5.420;2024-03-06T14:01:46;14.57;;;8.57;;
79454;SDS011;68900;52.134;5.420;2024-03-06T14:04:17;13.57;;;7.10;;
79454;SDS011;68900;52.134;5.420;2024-03-06T14:06:45;10.90;;;6.20;;
79454;SDS011;68900;52.134;5.420;2024-03-06T14:09:11;10.90;;;6.65;;
79454;SDS011;68900;52.134;5.420;2024-03-06T14:11:41;15.90;;;7.85;;
79454;SDS011;68900;52.134;5.420;2024-03-06T14:14:19;13.25;;;6.97;;
79454;SDS011;68900;52.134;5.420;2024-03-06T14:16:49;12.70;;;7.05;;
79454;SDS011;68900;52.134;5.420;2024-03-06T14:19:17;15.25;;;7.05;;
79454;SDS011;68900;52.134;5.420;2024-03-06T14:21:44;14.07;;;7.03;;
79454;SDS011;68900;52.134;5.420;2024-03-06T14:24:10;13.80;;;7.45;;
79454;SDS011;68900;52.134;5.420;2024-03-06T14:26:37;14.88;;;7.10;;
79454;SDS011;68900;52.134;5.420;2024-03-06T14:29:05;12.65;;;7.25;;
79454;SDS011;68900;52.134;5.420;2024-03-06T14:31:33;15.57;;;6.97;;
79454;SDS011;68900;52.134;5.420;2024-03-06T14:34:00;14.40;;;7.38;;
79454;SDS011;68900;52.134;5.420;2024-03-06T14:36:31;15.82;;;7.32;;
79454;SDS011;68900;52.134;5.420;2024-03-06T14:39:04;13.40;;;7.63;;
79454;SDS011;68900;52.134;5.420;2024-03-06T14:41:31;14.63;;;8.27;;
79454;SDS011;68900;52.134;5.420;2024-03-06T14:43:58;12.85;;;7.75;;
79454;SDS011;68900;52.134;5.420;2024-03-06T14:46:43;13.43;;;7.45;;
79454;SDS011;68900;52.134;5.420;2024-03-06T14:49:10;14.50;;;7.30;;
79454;SDS011;68900;52.134;5.420;2024-03-06T14:51:36;19.05;;;7.88;;
79454;SDS011;68900;52.134;5.420;2024-03-06T14:54:07;13.82;;;7.47;;
79454;SDS011;68900;52.134;5.420;2024-03-06T14:56:34;12.65;;;7.30;;
79454;SDS011;68900;52.134;5.420;2024-03-06T14:59:00;15.98;;;7.30;;
79454;SDS011;68900;52.134;5.420;2024-03-06T15:01:30;13.23;;;6.75;;
79454;SDS011;68900;52.134;5.420;2024-03-06T15:04:05;12.60;;;6.20;;
79454;SDS011;68900;52.134;5.420;2024-03-06T15:06:32;13.55;;;7.22;;
79454;SDS011;68900;52.134;5.420;2024-03-06T15:09:02;12.23;;;7.18;;
79454;SDS011;68900;52.134;5.420;2024-03-06T15:14:02;12.43;;;6.75;;
79454;SDS011;68900;52.134;5.420;2024-03-06T15:16:29;13.50;;;6.40;;
79454;SDS011;68900;52.134;5.420;2024-03-06T15:18:56;14.90;;;6.82;;
79454;SDS011;68900;52.134;5.420;2024-03-06T15:21:23;11.65;;;6.63;;
79454;SDS011;68900;52.134;5.420;2024-03-06T15:23:50;11.35;;;6.25;;
79454;SDS011;68900;52.134;5.420;2024-03-06T15:26:17;13.40;;;7.00;;
79454;SDS011;68900;52.134;5.420;2024-03-06T15:28:44;14.00;;;6.85;;
79454;SDS011;68900;52.134;5.420;2024-03-06T15:31:14;12.43;;;6.55;;
79454;SDS011;68900;52.134;5.420;2024-03-06T15:33:46;13.80;;;7.18;;
79454;SDS011;68900;52.134;5.420;2024-03-06T15:36:16;13.30;;;7.03;;
79454;SDS011;68900;52.134;5.420;2024-03-06T15:38:43;12.63;;;6.75;;
79454;SDS011;68900;52.134;5.420;2024-03-06T15:41:09;15.40;;;7.35;;
79454;SDS011;68900;52.134;5.420;2024-03-06T15:43:36;12.10;;;6.70;;
79454;SDS011;68900;52.134;5.420;2024-03-06T15:46:03;11.88;;;6.72;;
79454;SDS011;68900;52.134;5.420;2024-03-06T15:48:30;11.77;;;6.47;;
79454;SDS011;68900;52.134;5.420;2024-03-06T15:50:58;13.63;;;6.40;;
79454;SDS011;68900;52.134;5.420;2024-03-06T15:53:25;12.40;;;5.90;;
79454;SDS011;68900;52.134;5.420;2024-03-06T15:55:56;11.65;;;5.93;;
79454;SDS011;68900;52.134;5.420;2024-03-06T15:58:25;10.73;;;5.88;;
79454;SDS011;68900;52.134;5.420;2024-03-06T16:03:25;11.50;;;5.82;;
79454;SDS011;68900;52.134;5.420;2024-03-06T16:05:51;11.02;;;5.75;;
79454;SDS011;68900;52.134;5.420;2024-03-06T16:08:32;12.15;;;6.50;;
79454;SDS011;68900;52.134;5.420;2024-03-06T16:10:59;12.48;;;5.60;;
79454;SDS011;68900;52.134;5.420;2024-03-06T16:13:27;12.43;;;6.10;;
79454;SDS011;68900;52.134;5.420;2024-03-06T16:15:55;11.88;;;5.68;;
79454;SDS011;68900;52.134;5.420;2024-03-06T16:18:22;13.43;;;5.95;;
79454;SDS011;68900;52.134;5.420;2024-03-06T16:20:48;12.57;;;6.80;;
79454;SDS011;68900;52.134;5.420;2024-03-06T16:23:15;11.82;;;6.15;;
79454;SDS011;68900;52.134;5.420;2024-03-06T16:25:41;12.52;;;6.28;;